LiveATC.Net - Listen to live air traffic control over the Internet! Contact for advertising information

ICAO: KBUF  IATA: BUF   Airport: Buffalo Niagara International Airport
City: Buffalo   State/Province: New York
Country: United States   Continent: North America
KBUF METAR Weather: KBUF 062354Z 28004KT 10SM SCT016 OVC028 16/13 A3005 RMK AO2 SLP177 60000 T01560128 10167 20150 53000
KBUF Flight Activity (FlightAware)
KBUF Airport Info   (AirNav) (iFlightPlanner)
KBUF VFR Sectional Chart   (iFlightPlanner) 
KBUF IFR Low Chart   (iFlightPlanner) 
KBUF Tower/App
Feed Status: UP   Listeners: 2
Listen right in your browser - requires Flash (in browser, requires Flash)
Click here to listen with your own player (launches your MP3 player)
KBUF Tower/App Audio Archives
Buffalo Approach126.150
Buffalo Approach126.500
Buffalo Tower120.500


Unauthorized use prohibited. See Terms of Service

Find LiveATC Audio Streams

Airport/ARTCC Code

(e.g., 124.400, 128.75)
Site-wide search

Browse LiveATC Feeds
LiveATC Coverage Map
Top 50 LiveATC Feeds
Bad Weather Areas

Offer a LiveATC Feed
Press Inquiries

LiveATC on iPhone
LiveATC on Android

LiveATC Mobile
(Mobile browser)

ATC Audio Archives
Interesting Recordings

LiveATC Forums

Home Page
Make a Donation
LiveATC Bookstore

Terms of Use
Privacy Policy

ATC/Radar Sites
U.S. ARTCC Freqs
Canadian Air Freqs


FAA Airport Status
Nat'l Airspace Status
Arrival Demand Charts

Server Software By:

Please make a donation to help us keep growing!